<?xml version="1.0" encoding="UTF-8" standalone="no" ?>
<gpx xmlns="http://www.topografix.com/GPX/1/1" xmlns:xsi="http://www.w3.org/2001/XMLSchema-instance" xsi:schemaLocation="http://www.topografix.com/GPX/1/1 http://www.topografix.com/GPX/1/1/gpx.xsd" version="1.1" creator="VisuGPX - https://www.visugpx.com">
  <metadata>
    <name>Les Noues  Ribou -  CHOLET 49300</name>
    <desc><![CDATA[Facile,sympa !
]]></desc>
  </metadata>
  <trk>
    <name><![CDATA[Les Noues  Ribou -  CHOLET 49300_1]]></name>
    <trkseg>
      <trkpt lat="47.06709" lon="-0.81369">
        <ele>130.5</ele>
        <time>2014-07-09T12:07:21Z</time>
      </trkpt>
      <trkpt lat="47.06709" lon="-0.81369">
        <ele>187.4</ele>
        <time>2014-07-09T12:07:23Z</time>
      </trkpt>
      <trkpt lat="47.0672" lon="-0.81283">
        <ele>191.9</ele>
        <time>2014-07-09T12:08:13Z</time>
      </trkpt>
      <trkpt lat="47.0672" lon="-0.81283">
        <ele>191.9</ele>
        <time>2014-07-09T12:08:19Z</time>
      </trkpt>
      <trkpt lat="47.0672" lon="-0.81283">
        <ele>191.9</ele>
        <time>2014-07-09T12:08:20Z</time>
      </trkpt>
      <trkpt lat="47.06662" lon="-0.81217">
        <ele>191.2</ele>
        <time>2014-07-09T12:10:18Z</time>
      </trkpt>
      <trkpt lat="47.06658" lon="-0.81217">
        <ele>191.4</ele>
        <time>2014-07-09T12:10:21Z</time>
      </trkpt>
      <trkpt lat="47.06658" lon="-0.81217">
        <ele>191.4</ele>
        <time>2014-07-09T12:10:27Z</time>
      </trkpt>
      <trkpt lat="47.06581" lon="-0.81217">
        <ele>193.4</ele>
        <time>2014-07-09T12:11:30Z</time>
      </trkpt>
      <trkpt lat="47.06578" lon="-0.81217">
        <ele>193.8</ele>
        <time>2014-07-09T12:11:32Z</time>
      </trkpt>
      <trkpt lat="47.06576" lon="-0.81217">
        <ele>193.8</ele>
        <time>2014-07-09T12:11:38Z</time>
      </trkpt>
      <trkpt lat="47.0653" lon="-0.81218">
        <ele>193.9</ele>
        <time>2014-07-09T12:12:12Z</time>
      </trkpt>
      <trkpt lat="47.06527" lon="-0.81219">
        <ele>194</ele>
        <time>2014-07-09T12:12:15Z</time>
      </trkpt>
      <trkpt lat="47.06527" lon="-0.81219">
        <ele>194</ele>
        <time>2014-07-09T12:12:23Z</time>
      </trkpt>
      <trkpt lat="47.06485" lon="-0.81215">
        <ele>192.4</ele>
        <time>2014-07-09T12:12:51Z</time>
      </trkpt>
      <trkpt lat="47.06485" lon="-0.81215">
        <ele>192.4</ele>
        <time>2014-07-09T12:12:58Z</time>
      </trkpt>
      <trkpt lat="47.06485" lon="-0.81215">
        <ele>192.4</ele>
        <time>2014-07-09T12:12:59Z</time>
      </trkpt>
      <trkpt lat="47.06445" lon="-0.81213">
        <ele>192.2</ele>
        <time>2014-07-09T12:13:23Z</time>
      </trkpt>
      <trkpt lat="47.06445" lon="-0.81213">
        <ele>192.2</ele>
        <time>2014-07-09T12:13:28Z</time>
      </trkpt>
      <trkpt lat="47.06445" lon="-0.81213">
        <ele>192.2</ele>
        <time>2014-07-09T12:13:29Z</time>
      </trkpt>
      <trkpt lat="47.06374" lon="-0.81213">
        <ele>193.2</ele>
        <time>2014-07-09T12:14:22Z</time>
      </trkpt>
      <trkpt lat="47.06369" lon="-0.81212">
        <ele>193.2</ele>
        <time>2014-07-09T12:14:25Z</time>
      </trkpt>
      <trkpt lat="47.06368" lon="-0.81212">
        <ele>193.2</ele>
        <time>2014-07-09T12:14:34Z</time>
      </trkpt>
      <trkpt lat="47.06333" lon="-0.81228">
        <ele>193.9</ele>
        <time>2014-07-09T12:14:53Z</time>
      </trkpt>
      <trkpt lat="47.06317" lon="-0.81248">
        <ele>195.2</ele>
        <time>2014-07-09T12:15:10Z</time>
      </trkpt>
      <trkpt lat="47.06317" lon="-0.81248">
        <ele>195.2</ele>
        <time>2014-07-09T12:15:17Z</time>
      </trkpt>
      <trkpt lat="47.06317" lon="-0.81248">
        <ele>195.2</ele>
        <time>2014-07-09T12:15:18Z</time>
      </trkpt>
      <trkpt lat="47.06282" lon="-0.81348">
        <ele>197.7</ele>
        <time>2014-07-09T12:16:13Z</time>
      </trkpt>
      <trkpt lat="47.06279" lon="-0.81355">
        <ele>197.5</ele>
        <time>2014-07-09T12:16:17Z</time>
      </trkpt>
      <trkpt lat="47.06279" lon="-0.81356">
        <ele>197.3</ele>
        <time>2014-07-09T12:16:23Z</time>
      </trkpt>
      <trkpt lat="47.06241" lon="-0.81448">
        <ele>196.1</ele>
        <time>2014-07-09T12:17:16Z</time>
      </trkpt>
      <trkpt lat="47.06241" lon="-0.81448">
        <ele>196.1</ele>
        <time>2014-07-09T12:17:21Z</time>
      </trkpt>
      <trkpt lat="47.06241" lon="-0.81448">
        <ele>196.1</ele>
        <time>2014-07-09T12:17:22Z</time>
      </trkpt>
      <trkpt lat="47.06215" lon="-0.81496">
        <ele>198.4</ele>
        <time>2014-07-09T12:17:50Z</time>
      </trkpt>
      <trkpt lat="47.06209" lon="-0.815">
        <ele>199.1</ele>
        <time>2014-07-09T12:17:54Z</time>
      </trkpt>
      <trkpt lat="47.06208" lon="-0.81504">
        <ele>199.2</ele>
        <time>2014-07-09T12:18:01Z</time>
      </trkpt>
      <trkpt lat="47.06175" lon="-0.8157">
        <ele>199.3</ele>
        <time>2014-07-09T12:18:41Z</time>
      </trkpt>
      <trkpt lat="47.06175" lon="-0.8157">
        <ele>199.3</ele>
        <time>2014-07-09T12:18:48Z</time>
      </trkpt>
      <trkpt lat="47.06175" lon="-0.8157">
        <ele>199.3</ele>
        <time>2014-07-09T12:18:49Z</time>
      </trkpt>
      <trkpt lat="47.06151" lon="-0.81632">
        <ele>200.4</ele>
        <time>2014-07-09T12:19:19Z</time>
      </trkpt>
      <trkpt lat="47.06149" lon="-0.81636">
        <ele>200.1</ele>
        <time>2014-07-09T12:19:22Z</time>
      </trkpt>
      <trkpt lat="47.06149" lon="-0.81636">
        <ele>200.1</ele>
        <time>2014-07-09T12:19:30Z</time>
      </trkpt>
      <trkpt lat="47.06132" lon="-0.8169">
        <ele>203.4</ele>
        <time>2014-07-09T12:19:53Z</time>
      </trkpt>
      <trkpt lat="47.06132" lon="-0.8169">
        <ele>203.4</ele>
        <time>2014-07-09T12:20:01Z</time>
      </trkpt>
      <trkpt lat="47.06132" lon="-0.8169">
        <ele>203.4</ele>
        <time>2014-07-09T12:20:02Z</time>
      </trkpt>
      <trkpt lat="47.06106" lon="-0.81734">
        <ele>203.5</ele>
        <time>2014-07-09T12:20:32Z</time>
      </trkpt>
      <trkpt lat="47.06106" lon="-0.81734">
        <ele>203.5</ele>
        <time>2014-07-09T12:20:40Z</time>
      </trkpt>
      <trkpt lat="47.06106" lon="-0.81734">
        <ele>203.5</ele>
        <time>2014-07-09T12:20:41Z</time>
      </trkpt>
      <trkpt lat="47.06082" lon="-0.81786">
        <ele>202.1</ele>
        <time>2014-07-09T12:21:06Z</time>
      </trkpt>
      <trkpt lat="47.0608" lon="-0.81789">
        <ele>202.5</ele>
        <time>2014-07-09T12:21:08Z</time>
      </trkpt>
      <trkpt lat="47.0608" lon="-0.81789">
        <ele>202.5</ele>
        <time>2014-07-09T12:21:16Z</time>
      </trkpt>
      <trkpt lat="47.0606" lon="-0.81817">
        <ele>202.9</ele>
        <time>2014-07-09T12:21:29Z</time>
      </trkpt>
      <trkpt lat="47.0606" lon="-0.81817">
        <ele>202.9</ele>
        <time>2014-07-09T12:21:37Z</time>
      </trkpt>
      <trkpt lat="47.0606" lon="-0.81817">
        <ele>202.9</ele>
        <time>2014-07-09T12:21:38Z</time>
      </trkpt>
      <trkpt lat="47.06005" lon="-0.81895">
        <ele>202.7</ele>
        <time>2014-07-09T12:22:31Z</time>
      </trkpt>
      <trkpt lat="47.06002" lon="-0.819">
        <ele>202.5</ele>
        <time>2014-07-09T12:22:34Z</time>
      </trkpt>
      <trkpt lat="47.06" lon="-0.81905">
        <ele>203.1</ele>
        <time>2014-07-09T12:22:40Z</time>
      </trkpt>
      <trkpt lat="47.05969" lon="-0.81942">
        <ele>202.9</ele>
        <time>2014-07-09T12:23:10Z</time>
      </trkpt>
      <trkpt lat="47.05969" lon="-0.81942">
        <ele>202.9</ele>
        <time>2014-07-09T12:23:16Z</time>
      </trkpt>
      <trkpt lat="47.05969" lon="-0.81942">
        <ele>202.9</ele>
        <time>2014-07-09T12:23:17Z</time>
      </trkpt>
      <trkpt lat="47.0589" lon="-0.81979">
        <ele>208.9</ele>
        <time>2014-07-09T12:24:38Z</time>
      </trkpt>
      <trkpt lat="47.05879" lon="-0.81979">
        <ele>209.7</ele>
        <time>2014-07-09T12:24:46Z</time>
      </trkpt>
      <trkpt lat="47.05876" lon="-0.81979">
        <ele>209.6</ele>
        <time>2014-07-09T12:24:54Z</time>
      </trkpt>
      <trkpt lat="47.05833" lon="-0.81981">
        <ele>211.2</ele>
        <time>2014-07-09T12:25:26Z</time>
      </trkpt>
      <trkpt lat="47.05827" lon="-0.81978">
        <ele>211</ele>
        <time>2014-07-09T12:25:29Z</time>
      </trkpt>
      <trkpt lat="47.05825" lon="-0.81977">
        <ele>211.7</ele>
        <time>2014-07-09T12:25:38Z</time>
      </trkpt>
      <trkpt lat="47.05772" lon="-0.81991">
        <ele>210.8</ele>
        <time>2014-07-09T12:26:14Z</time>
      </trkpt>
      <trkpt lat="47.05772" lon="-0.81991">
        <ele>210.8</ele>
        <time>2014-07-09T12:26:20Z</time>
      </trkpt>
      <trkpt lat="47.05772" lon="-0.81991">
        <ele>210.8</ele>
        <time>2014-07-09T12:26:21Z</time>
      </trkpt>
      <trkpt lat="47.05701" lon="-0.82037">
        <ele>212.2</ele>
        <time>2014-07-09T12:27:15Z</time>
      </trkpt>
      <trkpt lat="47.05701" lon="-0.82037">
        <ele>212.2</ele>
        <time>2014-07-09T12:27:20Z</time>
      </trkpt>
      <trkpt lat="47.05701" lon="-0.82037">
        <ele>212.2</ele>
        <time>2014-07-09T12:27:21Z</time>
      </trkpt>
      <trkpt lat="47.05662" lon="-0.82064">
        <ele>211.2</ele>
        <time>2014-07-09T12:27:50Z</time>
      </trkpt>
      <trkpt lat="47.05658" lon="-0.8207">
        <ele>210.6</ele>
        <time>2014-07-09T12:27:54Z</time>
      </trkpt>
      <trkpt lat="47.05655" lon="-0.82072">
        <ele>210.4</ele>
        <time>2014-07-09T12:28:03Z</time>
      </trkpt>
      <trkpt lat="47.05594" lon="-0.82092">
        <ele>214.9</ele>
        <time>2014-07-09T12:28:46Z</time>
      </trkpt>
      <trkpt lat="47.05594" lon="-0.82092">
        <ele>214.9</ele>
        <time>2014-07-09T12:28:51Z</time>
      </trkpt>
      <trkpt lat="47.05594" lon="-0.82092">
        <ele>214.9</ele>
        <time>2014-07-09T12:28:52Z</time>
      </trkpt>
      <trkpt lat="47.05553" lon="-0.82092">
        <ele>214.2</ele>
        <time>2014-07-09T12:29:19Z</time>
      </trkpt>
      <trkpt lat="47.05553" lon="-0.82092">
        <ele>214.2</ele>
        <time>2014-07-09T12:29:26Z</time>
      </trkpt>
      <trkpt lat="47.05553" lon="-0.82092">
        <ele>214.2</ele>
        <time>2014-07-09T12:29:27Z</time>
      </trkpt>
      <trkpt lat="47.05496" lon="-0.82085">
        <ele>215</ele>
        <time>2014-07-09T12:30:27Z</time>
      </trkpt>
      <trkpt lat="47.05492" lon="-0.82089">
        <ele>215.6</ele>
        <time>2014-07-09T12:30:30Z</time>
      </trkpt>
      <trkpt lat="47.05492" lon="-0.82089">
        <ele>215.6</ele>
        <time>2014-07-09T12:30:37Z</time>
      </trkpt>
      <trkpt lat="47.054" lon="-0.82139">
        <ele>212.5</ele>
        <time>2014-07-09T12:31:52Z</time>
      </trkpt>
      <trkpt lat="47.054" lon="-0.82139">
        <ele>212.5</ele>
        <time>2014-07-09T12:31:58Z</time>
      </trkpt>
      <trkpt lat="47.054" lon="-0.82139">
        <ele>212.5</ele>
        <time>2014-07-09T12:31:59Z</time>
      </trkpt>
      <trkpt lat="47.05361" lon="-0.82147">
        <ele>210.9</ele>
        <time>2014-07-09T12:32:23Z</time>
      </trkpt>
      <trkpt lat="47.05361" lon="-0.82147">
        <ele>210.9</ele>
        <time>2014-07-09T12:32:31Z</time>
      </trkpt>
      <trkpt lat="47.05361" lon="-0.82147">
        <ele>210.9</ele>
        <time>2014-07-09T12:32:32Z</time>
      </trkpt>
      <trkpt lat="47.0528" lon="-0.82126">
        <ele>208.7</ele>
        <time>2014-07-09T12:33:31Z</time>
      </trkpt>
      <trkpt lat="47.0528" lon="-0.82126">
        <ele>208.7</ele>
        <time>2014-07-09T12:33:36Z</time>
      </trkpt>
      <trkpt lat="47.0528" lon="-0.82126">
        <ele>208.7</ele>
        <time>2014-07-09T12:33:37Z</time>
      </trkpt>
      <trkpt lat="47.05231" lon="-0.82096">
        <ele>206.5</ele>
        <time>2014-07-09T12:34:15Z</time>
      </trkpt>
      <trkpt lat="47.05231" lon="-0.82096">
        <ele>206.5</ele>
        <time>2014-07-09T12:34:23Z</time>
      </trkpt>
      <trkpt lat="47.05231" lon="-0.82096">
        <ele>206.5</ele>
        <time>2014-07-09T12:34:24Z</time>
      </trkpt>
      <trkpt lat="47.0522" lon="-0.82036">
        <ele>207.5</ele>
        <time>2014-07-09T12:34:48Z</time>
      </trkpt>
      <trkpt lat="47.0522" lon="-0.82036">
        <ele>207.5</ele>
        <time>2014-07-09T12:34:56Z</time>
      </trkpt>
      <trkpt lat="47.0522" lon="-0.82036">
        <ele>207.5</ele>
        <time>2014-07-09T12:34:57Z</time>
      </trkpt>
      <trkpt lat="47.05161" lon="-0.82037">
        <ele>204.6</ele>
        <time>2014-07-09T12:35:50Z</time>
      </trkpt>
      <trkpt lat="47.05156" lon="-0.82039">
        <ele>205.3</ele>
        <time>2014-07-09T12:35:54Z</time>
      </trkpt>
      <trkpt lat="47.05156" lon="-0.82039">
        <ele>205.3</ele>
        <time>2014-07-09T12:36:01Z</time>
      </trkpt>
      <trkpt lat="47.05111" lon="-0.82029">
        <ele>203</ele>
        <time>2014-07-09T12:36:29Z</time>
      </trkpt>
      <trkpt lat="47.05097" lon="-0.82036">
        <ele>203</ele>
        <time>2014-07-09T12:36:39Z</time>
      </trkpt>
      <trkpt lat="47.05094" lon="-0.82038">
        <ele>202.5</ele>
        <time>2014-07-09T12:36:48Z</time>
      </trkpt>
      <trkpt lat="47.05057" lon="-0.82065">
        <ele>199.2</ele>
        <time>2014-07-09T12:37:16Z</time>
      </trkpt>
      <trkpt lat="47.05055" lon="-0.82066">
        <ele>198.9</ele>
        <time>2014-07-09T12:37:18Z</time>
      </trkpt>
      <trkpt lat="47.05046" lon="-0.82073">
        <ele>198.1</ele>
        <time>2014-07-09T12:37:27Z</time>
      </trkpt>
      <trkpt lat="47.05007" lon="-0.82096">
        <ele>197.1</ele>
        <time>2014-07-09T12:38:01Z</time>
      </trkpt>
      <trkpt lat="47.04991" lon="-0.82108">
        <ele>197.1</ele>
        <time>2014-07-09T12:38:14Z</time>
      </trkpt>
      <trkpt lat="47.04991" lon="-0.82108">
        <ele>197.1</ele>
        <time>2014-07-09T12:38:22Z</time>
      </trkpt>
      <trkpt lat="47.04991" lon="-0.82108">
        <ele>197.1</ele>
        <time>2014-07-09T12:38:23Z</time>
      </trkpt>
      <trkpt lat="47.04936" lon="-0.82141">
        <ele>192.9</ele>
        <time>2014-07-09T12:39:02Z</time>
      </trkpt>
      <trkpt lat="47.04926" lon="-0.82145">
        <ele>191.6</ele>
        <time>2014-07-09T12:39:10Z</time>
      </trkpt>
      <trkpt lat="47.04913" lon="-0.82153">
        <ele>191.8</ele>
        <time>2014-07-09T12:39:21Z</time>
      </trkpt>
      <trkpt lat="47.04913" lon="-0.82153">
        <ele>191.8</ele>
        <time>2014-07-09T12:39:29Z</time>
      </trkpt>
      <trkpt lat="47.04913" lon="-0.82153">
        <ele>191.8</ele>
        <time>2014-07-09T12:39:30Z</time>
      </trkpt>
      <trkpt lat="47.04888" lon="-0.82167">
        <ele>191</ele>
        <time>2014-07-09T12:39:42Z</time>
      </trkpt>
      <trkpt lat="47.04888" lon="-0.82167">
        <ele>191</ele>
        <time>2014-07-09T12:39:50Z</time>
      </trkpt>
      <trkpt lat="47.04888" lon="-0.82167">
        <ele>191</ele>
        <time>2014-07-09T12:39:51Z</time>
      </trkpt>
      <trkpt lat="47.04865" lon="-0.82184">
        <ele>189.6</ele>
        <time>2014-07-09T12:40:02Z</time>
      </trkpt>
      <trkpt lat="47.04862" lon="-0.82188">
        <ele>189.5</ele>
        <time>2014-07-09T12:40:05Z</time>
      </trkpt>
      <trkpt lat="47.04846" lon="-0.822">
        <ele>189.8</ele>
        <time>2014-07-09T12:40:19Z</time>
      </trkpt>
      <trkpt lat="47.04844" lon="-0.82202">
        <ele>189.4</ele>
        <time>2014-07-09T12:40:21Z</time>
      </trkpt>
      <trkpt lat="47.04843" lon="-0.82203">
        <ele>189.1</ele>
        <time>2014-07-09T12:40:27Z</time>
      </trkpt>
      <trkpt lat="47.04784" lon="-0.8223">
        <ele>185.8</ele>
        <time>2014-07-09T12:41:22Z</time>
      </trkpt>
      <trkpt lat="47.04784" lon="-0.8223">
        <ele>185.8</ele>
        <time>2014-07-09T12:41:29Z</time>
      </trkpt>
      <trkpt lat="47.04784" lon="-0.8223">
        <ele>185.8</ele>
        <time>2014-07-09T12:41:30Z</time>
      </trkpt>
      <trkpt lat="47.04741" lon="-0.82256">
        <ele>184.3</ele>
        <time>2014-07-09T12:42:02Z</time>
      </trkpt>
      <trkpt lat="47.04723" lon="-0.82267">
        <ele>186.5</ele>
        <time>2014-07-09T12:42:15Z</time>
      </trkpt>
      <trkpt lat="47.0472" lon="-0.8227">
        <ele>186.6</ele>
        <time>2014-07-09T12:42:24Z</time>
      </trkpt>
      <trkpt lat="47.04682" lon="-0.82293">
        <ele>184.4</ele>
        <time>2014-07-09T12:42:53Z</time>
      </trkpt>
      <trkpt lat="47.04671" lon="-0.82295">
        <ele>183.3</ele>
        <time>2014-07-09T12:43:00Z</time>
      </trkpt>
      <trkpt lat="47.04658" lon="-0.82292">
        <ele>183.2</ele>
        <time>2014-07-09T12:43:11Z</time>
      </trkpt>
      <trkpt lat="47.04654" lon="-0.82287">
        <ele>183.2</ele>
        <time>2014-07-09T12:43:13Z</time>
      </trkpt>
      <trkpt lat="47.04652" lon="-0.82285">
        <ele>183.1</ele>
        <time>2014-07-09T12:43:22Z</time>
      </trkpt>
      <trkpt lat="47.0463" lon="-0.82241">
        <ele>178.4</ele>
        <time>2014-07-09T12:43:47Z</time>
      </trkpt>
      <trkpt lat="47.04621" lon="-0.82217">
        <ele>176.4</ele>
        <time>2014-07-09T12:44:02Z</time>
      </trkpt>
      <trkpt lat="47.04621" lon="-0.82217">
        <ele>176.4</ele>
        <time>2014-07-09T12:44:09Z</time>
      </trkpt>
      <trkpt lat="47.04621" lon="-0.82217">
        <ele>176.4</ele>
        <time>2014-07-09T12:44:10Z</time>
      </trkpt>
      <trkpt lat="47.04597" lon="-0.82155">
        <ele>174</ele>
        <time>2014-07-09T12:44:41Z</time>
      </trkpt>
      <trkpt lat="47.04587" lon="-0.82137">
        <ele>173.7</ele>
        <time>2014-07-09T12:44:54Z</time>
      </trkpt>
      <trkpt lat="47.04584" lon="-0.82127">
        <ele>172.6</ele>
        <time>2014-07-09T12:45:01Z</time>
      </trkpt>
      <trkpt lat="47.04582" lon="-0.82122">
        <ele>171.3</ele>
        <time>2014-07-09T12:45:10Z</time>
      </trkpt>
      <trkpt lat="47.04544" lon="-0.82112">
        <ele>169.2</ele>
        <time>2014-07-09T12:45:42Z</time>
      </trkpt>
      <trkpt lat="47.04539" lon="-0.82113">
        <ele>168.8</ele>
        <time>2014-07-09T12:45:45Z</time>
      </trkpt>
      <trkpt lat="47.04537" lon="-0.82114">
        <ele>168.6</ele>
        <time>2014-07-09T12:45:53Z</time>
      </trkpt>
      <trkpt lat="47.04507" lon="-0.82127">
        <ele>166.3</ele>
        <time>2014-07-09T12:48:15Z</time>
      </trkpt>
      <trkpt lat="47.04505" lon="-0.82127">
        <ele>166.1</ele>
        <time>2014-07-09T12:48:16Z</time>
      </trkpt>
      <trkpt lat="47.04507" lon="-0.82127">
        <ele>166.3</ele>
        <time>2014-07-09T12:48:24Z</time>
      </trkpt>
      <trkpt lat="47.04467" lon="-0.8215">
        <ele>164.7</ele>
        <time>2014-07-09T12:48:48Z</time>
      </trkpt>
      <trkpt lat="47.04466" lon="-0.82152">
        <ele>164.4</ele>
        <time>2014-07-09T12:48:50Z</time>
      </trkpt>
      <trkpt lat="47.04467" lon="-0.8215">
        <ele>164.7</ele>
        <time>2014-07-09T12:48:59Z</time>
      </trkpt>
      <trkpt lat="47.0444" lon="-0.82177">
        <ele>162.3</ele>
        <time>2014-07-09T12:49:15Z</time>
      </trkpt>
      <trkpt lat="47.04431" lon="-0.82186">
        <ele>161.4</ele>
        <time>2014-07-09T12:49:23Z</time>
      </trkpt>
      <trkpt lat="47.04417" lon="-0.82195">
        <ele>161.2</ele>
        <time>2014-07-09T12:49:34Z</time>
      </trkpt>
      <trkpt lat="47.04417" lon="-0.82195">
        <ele>161.2</ele>
        <time>2014-07-09T12:49:42Z</time>
      </trkpt>
      <trkpt lat="47.04417" lon="-0.82195">
        <ele>161.2</ele>
        <time>2014-07-09T12:49:43Z</time>
      </trkpt>
      <trkpt lat="47.04397" lon="-0.82213">
        <ele>159.7</ele>
        <time>2014-07-09T12:49:51Z</time>
      </trkpt>
      <trkpt lat="47.04397" lon="-0.82213">
        <ele>159.7</ele>
        <time>2014-07-09T12:49:56Z</time>
      </trkpt>
      <trkpt lat="47.04397" lon="-0.82213">
        <ele>159.7</ele>
        <time>2014-07-09T12:49:57Z</time>
      </trkpt>
      <trkpt lat="47.04377" lon="-0.82232">
        <ele>159.3</ele>
        <time>2014-07-09T12:50:10Z</time>
      </trkpt>
      <trkpt lat="47.04366" lon="-0.82242">
        <ele>159.7</ele>
        <time>2014-07-09T12:50:20Z</time>
      </trkpt>
      <trkpt lat="47.0436" lon="-0.82248">
        <ele>159.1</ele>
        <time>2014-07-09T12:50:26Z</time>
      </trkpt>
      <trkpt lat="47.0436" lon="-0.82248">
        <ele>159.1</ele>
        <time>2014-07-09T12:50:34Z</time>
      </trkpt>
      <trkpt lat="47.0431" lon="-0.82317">
        <ele>159.3</ele>
        <time>2014-07-09T12:51:27Z</time>
      </trkpt>
      <trkpt lat="47.04308" lon="-0.82323">
        <ele>158.8</ele>
        <time>2014-07-09T12:51:30Z</time>
      </trkpt>
      <trkpt lat="47.04308" lon="-0.82325">
        <ele>159.1</ele>
        <time>2014-07-09T12:51:38Z</time>
      </trkpt>
      <trkpt lat="47.04303" lon="-0.82378">
        <ele>159.4</ele>
        <time>2014-07-09T12:52:03Z</time>
      </trkpt>
      <trkpt lat="47.04303" lon="-0.82378">
        <ele>159.4</ele>
        <time>2014-07-09T12:52:11Z</time>
      </trkpt>
      <trkpt lat="47.04297" lon="-0.82389">
        <ele>160</ele>
        <time>2014-07-09T12:52:12Z</time>
      </trkpt>
      <trkpt lat="47.04266" lon="-0.82444">
        <ele>161.9</ele>
        <time>2014-07-09T12:52:52Z</time>
      </trkpt>
      <trkpt lat="47.04266" lon="-0.82444">
        <ele>161.9</ele>
        <time>2014-07-09T12:52:58Z</time>
      </trkpt>
      <trkpt lat="47.04266" lon="-0.82444">
        <ele>161.9</ele>
        <time>2014-07-09T12:52:59Z</time>
      </trkpt>
      <trkpt lat="47.04247" lon="-0.82483">
        <ele>163.4</ele>
        <time>2014-07-09T12:53:18Z</time>
      </trkpt>
      <trkpt lat="47.04247" lon="-0.82483">
        <ele>163.4</ele>
        <time>2014-07-09T12:53:25Z</time>
      </trkpt>
      <trkpt lat="47.04247" lon="-0.82483">
        <ele>163.4</ele>
        <time>2014-07-09T12:53:26Z</time>
      </trkpt>
      <trkpt lat="47.04232" lon="-0.82507">
        <ele>165.5</ele>
        <time>2014-07-09T12:53:36Z</time>
      </trkpt>
      <trkpt lat="47.04232" lon="-0.82507">
        <ele>165.5</ele>
        <time>2014-07-09T12:53:43Z</time>
      </trkpt>
      <trkpt lat="47.04232" lon="-0.82507">
        <ele>165.5</ele>
        <time>2014-07-09T12:53:44Z</time>
      </trkpt>
      <trkpt lat="47.04184" lon="-0.82594">
        <ele>169.9</ele>
        <time>2014-07-09T12:54:42Z</time>
      </trkpt>
      <trkpt lat="47.04184" lon="-0.82594">
        <ele>169.9</ele>
        <time>2014-07-09T12:54:48Z</time>
      </trkpt>
      <trkpt lat="47.04184" lon="-0.82594">
        <ele>169.9</ele>
        <time>2014-07-09T12:54:49Z</time>
      </trkpt>
      <trkpt lat="47.04141" lon="-0.8268">
        <ele>171.6</ele>
        <time>2014-07-09T12:55:46Z</time>
      </trkpt>
      <trkpt lat="47.04141" lon="-0.8268">
        <ele>171.6</ele>
        <time>2014-07-09T12:55:52Z</time>
      </trkpt>
      <trkpt lat="47.04141" lon="-0.8268">
        <ele>171.6</ele>
        <time>2014-07-09T12:55:53Z</time>
      </trkpt>
      <trkpt lat="47.04131" lon="-0.8274">
        <ele>168.2</ele>
        <time>2014-07-09T12:56:22Z</time>
      </trkpt>
      <trkpt lat="47.04131" lon="-0.8274">
        <ele>168.2</ele>
        <time>2014-07-09T12:56:29Z</time>
      </trkpt>
      <trkpt lat="47.04131" lon="-0.8274">
        <ele>168.2</ele>
        <time>2014-07-09T12:56:30Z</time>
      </trkpt>
      <trkpt lat="47.04109" lon="-0.82802">
        <ele>167</ele>
        <time>2014-07-09T12:57:00Z</time>
      </trkpt>
      <trkpt lat="47.04104" lon="-0.82804">
        <ele>167</ele>
        <time>2014-07-09T12:57:04Z</time>
      </trkpt>
      <trkpt lat="47.04103" lon="-0.82805">
        <ele>167</ele>
        <time>2014-07-09T12:57:12Z</time>
      </trkpt>
      <trkpt lat="47.04086" lon="-0.82859">
        <ele>167.6</ele>
        <time>2014-07-09T12:57:52Z</time>
      </trkpt>
      <trkpt lat="47.04088" lon="-0.82864">
        <ele>167.5</ele>
        <time>2014-07-09T12:57:55Z</time>
      </trkpt>
      <trkpt lat="47.04088" lon="-0.82864">
        <ele>167.5</ele>
        <time>2014-07-09T12:58:04Z</time>
      </trkpt>
      <trkpt lat="47.04111" lon="-0.82972">
        <ele>169.5</ele>
        <time>2014-07-09T12:58:59Z</time>
      </trkpt>
      <trkpt lat="47.04112" lon="-0.82978">
        <ele>169.9</ele>
        <time>2014-07-09T12:59:02Z</time>
      </trkpt>
      <trkpt lat="47.04112" lon="-0.82978">
        <ele>169.9</ele>
        <time>2014-07-09T12:59:09Z</time>
      </trkpt>
      <trkpt lat="47.04111" lon="-0.83037">
        <ele>167.1</ele>
        <time>2014-07-09T12:59:35Z</time>
      </trkpt>
      <trkpt lat="47.04111" lon="-0.83037">
        <ele>167.1</ele>
        <time>2014-07-09T12:59:43Z</time>
      </trkpt>
      <trkpt lat="47.04111" lon="-0.83037">
        <ele>167.1</ele>
        <time>2014-07-09T12:59:44Z</time>
      </trkpt>
      <trkpt lat="47.04118" lon="-0.83124">
        <ele>168.1</ele>
        <time>2014-07-09T13:04:54Z</time>
      </trkpt>
      <trkpt lat="47.04118" lon="-0.83124">
        <ele>168.1</ele>
        <time>2014-07-09T13:05:01Z</time>
      </trkpt>
      <trkpt lat="47.04118" lon="-0.83124">
        <ele>168.1</ele>
        <time>2014-07-09T13:05:02Z</time>
      </trkpt>
      <trkpt lat="47.04122" lon="-0.83152">
        <ele>171.3</ele>
        <time>2014-07-09T13:05:11Z</time>
      </trkpt>
      <trkpt lat="47.04122" lon="-0.83152">
        <ele>171.3</ele>
        <time>2014-07-09T13:05:18Z</time>
      </trkpt>
      <trkpt lat="47.04122" lon="-0.83152">
        <ele>171.3</ele>
        <time>2014-07-09T13:05:19Z</time>
      </trkpt>
      <trkpt lat="47.0411" lon="-0.83215">
        <ele>170</ele>
        <time>2014-07-09T13:05:47Z</time>
      </trkpt>
      <trkpt lat="47.04099" lon="-0.83235">
        <ele>169</ele>
        <time>2014-07-09T13:05:59Z</time>
      </trkpt>
      <trkpt lat="47.04099" lon="-0.83235">
        <ele>169</ele>
        <time>2014-07-09T13:06:08Z</time>
      </trkpt>
      <trkpt lat="47.04072" lon="-0.83281">
        <ele>165.8</ele>
        <time>2014-07-09T13:06:58Z</time>
      </trkpt>
      <trkpt lat="47.04061" lon="-0.83292">
        <ele>166.5</ele>
        <time>2014-07-09T13:07:08Z</time>
      </trkpt>
      <trkpt lat="47.04044" lon="-0.83295">
        <ele>168</ele>
        <time>2014-07-09T13:07:20Z</time>
      </trkpt>
      <trkpt lat="47.0404" lon="-0.83297">
        <ele>168.6</ele>
        <time>2014-07-09T13:07:23Z</time>
      </trkpt>
      <trkpt lat="47.0403" lon="-0.83311">
        <ele>168.1</ele>
        <time>2014-07-09T13:07:33Z</time>
      </trkpt>
      <trkpt lat="47.04025" lon="-0.83311">
        <ele>167.6</ele>
        <time>2014-07-09T13:07:36Z</time>
      </trkpt>
      <trkpt lat="47.04013" lon="-0.83328">
        <ele>165.6</ele>
        <time>2014-07-09T13:07:48Z</time>
      </trkpt>
      <trkpt lat="47.04007" lon="-0.83334">
        <ele>165.1</ele>
        <time>2014-07-09T13:07:53Z</time>
      </trkpt>
      <trkpt lat="47.04006" lon="-0.83335">
        <ele>164.9</ele>
        <time>2014-07-09T13:08:02Z</time>
      </trkpt>
      <trkpt lat="47.03977" lon="-0.83358">
        <ele>163</ele>
        <time>2014-07-09T13:08:20Z</time>
      </trkpt>
      <trkpt lat="47.0397" lon="-0.83361">
        <ele>163.4</ele>
        <time>2014-07-09T13:08:25Z</time>
      </trkpt>
      <trkpt lat="47.0397" lon="-0.83361">
        <ele>163.4</ele>
        <time>2014-07-09T13:08:33Z</time>
      </trkpt>
      <trkpt lat="47.03932" lon="-0.83385">
        <ele>158.6</ele>
        <time>2014-07-09T13:08:58Z</time>
      </trkpt>
      <trkpt lat="47.03919" lon="-0.83391">
        <ele>158.3</ele>
        <time>2014-07-09T13:09:08Z</time>
      </trkpt>
      <trkpt lat="47.03903" lon="-0.83403">
        <ele>160</ele>
        <time>2014-07-09T13:09:22Z</time>
      </trkpt>
      <trkpt lat="47.03892" lon="-0.83405">
        <ele>158.7</ele>
        <time>2014-07-09T13:09:29Z</time>
      </trkpt>
      <trkpt lat="47.03892" lon="-0.83405">
        <ele>158.7</ele>
        <time>2014-07-09T13:09:34Z</time>
      </trkpt>
      <trkpt lat="47.03892" lon="-0.83405">
        <ele>158.7</ele>
        <time>2014-07-09T13:09:35Z</time>
      </trkpt>
      <trkpt lat="47.03856" lon="-0.83411">
        <ele>152.4</ele>
        <time>2014-07-09T13:10:07Z</time>
      </trkpt>
      <trkpt lat="47.03856" lon="-0.83411">
        <ele>152.4</ele>
        <time>2014-07-09T13:10:14Z</time>
      </trkpt>
      <trkpt lat="47.03856" lon="-0.83411">
        <ele>152.4</ele>
        <time>2014-07-09T13:10:15Z</time>
      </trkpt>
      <trkpt lat="47.03822" lon="-0.83447">
        <ele>147.2</ele>
        <time>2014-07-09T13:10:46Z</time>
      </trkpt>
      <trkpt lat="47.0382" lon="-0.8346">
        <ele>147</ele>
        <time>2014-07-09T13:10:54Z</time>
      </trkpt>
      <trkpt lat="47.03821" lon="-0.83465">
        <ele>146.6</ele>
        <time>2014-07-09T13:11:03Z</time>
      </trkpt>
      <trkpt lat="47.03827" lon="-0.83576">
        <ele>150.6</ele>
        <time>2014-07-09T13:12:13Z</time>
      </trkpt>
      <trkpt lat="47.03827" lon="-0.83576">
        <ele>150.6</ele>
        <time>2014-07-09T13:12:18Z</time>
      </trkpt>
      <trkpt lat="47.03827" lon="-0.83576">
        <ele>150.6</ele>
        <time>2014-07-09T13:12:19Z</time>
      </trkpt>
      <trkpt lat="47.03855" lon="-0.83585">
        <ele>153.5</ele>
        <time>2014-07-09T13:12:57Z</time>
      </trkpt>
      <trkpt lat="47.03864" lon="-0.83585">
        <ele>153.2</ele>
        <time>2014-07-09T13:13:03Z</time>
      </trkpt>
      <trkpt lat="47.03868" lon="-0.83584">
        <ele>153.5</ele>
        <time>2014-07-09T13:13:12Z</time>
      </trkpt>
      <trkpt lat="47.03924" lon="-0.8361">
        <ele>155.3</ele>
        <time>2014-07-09T13:14:10Z</time>
      </trkpt>
      <trkpt lat="47.0393" lon="-0.8361">
        <ele>155.8</ele>
        <time>2014-07-09T13:14:13Z</time>
      </trkpt>
      <trkpt lat="47.03932" lon="-0.83611">
        <ele>155.9</ele>
        <time>2014-07-09T13:14:21Z</time>
      </trkpt>
      <trkpt lat="47.03974" lon="-0.83621">
        <ele>157.8</ele>
        <time>2014-07-09T13:15:02Z</time>
      </trkpt>
      <trkpt lat="47.03974" lon="-0.83621">
        <ele>157.8</ele>
        <time>2014-07-09T13:15:09Z</time>
      </trkpt>
      <trkpt lat="47.03974" lon="-0.83621">
        <ele>157.8</ele>
        <time>2014-07-09T13:15:10Z</time>
      </trkpt>
      <trkpt lat="47.04016" lon="-0.83629">
        <ele>160.7</ele>
        <time>2014-07-09T13:15:40Z</time>
      </trkpt>
      <trkpt lat="47.04032" lon="-0.83633">
        <ele>161.4</ele>
        <time>2014-07-09T13:15:51Z</time>
      </trkpt>
      <trkpt lat="47.04046" lon="-0.83646">
        <ele>162.7</ele>
        <time>2014-07-09T13:16:03Z</time>
      </trkpt>
      <trkpt lat="47.04049" lon="-0.83648">
        <ele>163</ele>
        <time>2014-07-09T13:16:05Z</time>
      </trkpt>
      <trkpt lat="47.0406" lon="-0.83665">
        <ele>163.7</ele>
        <time>2014-07-09T13:16:20Z</time>
      </trkpt>
      <trkpt lat="47.04063" lon="-0.8367">
        <ele>164.1</ele>
        <time>2014-07-09T13:16:25Z</time>
      </trkpt>
      <trkpt lat="47.04063" lon="-0.8367">
        <ele>164.1</ele>
        <time>2014-07-09T13:16:33Z</time>
      </trkpt>
      <trkpt lat="47.04073" lon="-0.83707">
        <ele>167.2</ele>
        <time>2014-07-09T13:19:46Z</time>
      </trkpt>
      <trkpt lat="47.04073" lon="-0.83707">
        <ele>167.2</ele>
        <time>2014-07-09T13:19:54Z</time>
      </trkpt>
      <trkpt lat="47.04073" lon="-0.83707">
        <ele>167.2</ele>
        <time>2014-07-09T13:19:55Z</time>
      </trkpt>
      <trkpt lat="47.04114" lon="-0.83752">
        <ele>169.2</ele>
        <time>2014-07-09T13:21:11Z</time>
      </trkpt>
      <trkpt lat="47.04114" lon="-0.83752">
        <ele>169.2</ele>
        <time>2014-07-09T13:21:16Z</time>
      </trkpt>
      <trkpt lat="47.04114" lon="-0.83752">
        <ele>169.2</ele>
        <time>2014-07-09T13:21:17Z</time>
      </trkpt>
      <trkpt lat="47.04127" lon="-0.83788">
        <ele>171.6</ele>
        <time>2014-07-09T13:21:41Z</time>
      </trkpt>
      <trkpt lat="47.04127" lon="-0.83788">
        <ele>171.6</ele>
        <time>2014-07-09T13:21:49Z</time>
      </trkpt>
      <trkpt lat="47.04127" lon="-0.83788">
        <ele>171.6</ele>
        <time>2014-07-09T13:21:50Z</time>
      </trkpt>
      <trkpt lat="47.04136" lon="-0.83847">
        <ele>173.4</ele>
        <time>2014-07-09T13:22:14Z</time>
      </trkpt>
      <trkpt lat="47.04136" lon="-0.83847">
        <ele>173.4</ele>
        <time>2014-07-09T13:22:21Z</time>
      </trkpt>
      <trkpt lat="47.04136" lon="-0.83847">
        <ele>173.4</ele>
        <time>2014-07-09T13:22:22Z</time>
      </trkpt>
      <trkpt lat="47.04135" lon="-0.83877">
        <ele>174.8</ele>
        <time>2014-07-09T13:22:32Z</time>
      </trkpt>
      <trkpt lat="47.04135" lon="-0.83877">
        <ele>174.8</ele>
        <time>2014-07-09T13:22:40Z</time>
      </trkpt>
      <trkpt lat="47.04135" lon="-0.83877">
        <ele>174.8</ele>
        <time>2014-07-09T13:22:41Z</time>
      </trkpt>
      <trkpt lat="47.04162" lon="-0.8386">
        <ele>170.6</ele>
        <time>2014-07-09T13:26:17Z</time>
      </trkpt>
      <trkpt lat="47.04174" lon="-0.83844">
        <ele>171.7</ele>
        <time>2014-07-09T13:26:27Z</time>
      </trkpt>
      <trkpt lat="47.04174" lon="-0.83844">
        <ele>171.7</ele>
        <time>2014-07-09T13:26:35Z</time>
      </trkpt>
      <trkpt lat="47.04199" lon="-0.83827">
        <ele>173.6</ele>
        <time>2014-07-09T13:26:47Z</time>
      </trkpt>
      <trkpt lat="47.04207" lon="-0.83815">
        <ele>174.9</ele>
        <time>2014-07-09T13:26:55Z</time>
      </trkpt>
      <trkpt lat="47.04207" lon="-0.83815">
        <ele>174.9</ele>
        <time>2014-07-09T13:27:01Z</time>
      </trkpt>
      <trkpt lat="47.04207" lon="-0.83815">
        <ele>174.9</ele>
        <time>2014-07-09T13:27:02Z</time>
      </trkpt>
      <trkpt lat="47.04223" lon="-0.83786">
        <ele>175.6</ele>
        <time>2014-07-09T13:27:15Z</time>
      </trkpt>
      <trkpt lat="47.04228" lon="-0.83764">
        <ele>174.6</ele>
        <time>2014-07-09T13:27:26Z</time>
      </trkpt>
      <trkpt lat="47.04232" lon="-0.83751">
        <ele>174.9</ele>
        <time>2014-07-09T13:27:35Z</time>
      </trkpt>
      <trkpt lat="47.04233" lon="-0.83749">
        <ele>175</ele>
        <time>2014-07-09T13:27:43Z</time>
      </trkpt>
      <trkpt lat="47.04281" lon="-0.83805">
        <ele>175.1</ele>
        <time>2014-07-09T13:28:54Z</time>
      </trkpt>
      <trkpt lat="47.04285" lon="-0.83809">
        <ele>175.5</ele>
        <time>2014-07-09T13:28:57Z</time>
      </trkpt>
      <trkpt lat="47.04285" lon="-0.83809">
        <ele>175.5</ele>
        <time>2014-07-09T13:29:03Z</time>
      </trkpt>
      <trkpt lat="47.04319" lon="-0.83855">
        <ele>179.4</ele>
        <time>2014-07-09T13:29:39Z</time>
      </trkpt>
      <trkpt lat="47.04319" lon="-0.83855">
        <ele>179.4</ele>
        <time>2014-07-09T13:29:47Z</time>
      </trkpt>
      <trkpt lat="47.04319" lon="-0.83855">
        <ele>179.4</ele>
        <time>2014-07-09T13:29:48Z</time>
      </trkpt>
      <trkpt lat="47.04335" lon="-0.83879">
        <ele>179.4</ele>
        <time>2014-07-09T13:29:59Z</time>
      </trkpt>
      <trkpt lat="47.04335" lon="-0.83879">
        <ele>179.4</ele>
        <time>2014-07-09T13:30:07Z</time>
      </trkpt>
      <trkpt lat="47.04346" lon="-0.83892">
        <ele>180.3</ele>
        <time>2014-07-09T13:30:13Z</time>
      </trkpt>
      <trkpt lat="47.04355" lon="-0.839">
        <ele>181.2</ele>
        <time>2014-07-09T13:30:19Z</time>
      </trkpt>
      <trkpt lat="47.04356" lon="-0.83902">
        <ele>181.4</ele>
        <time>2014-07-09T13:30:25Z</time>
      </trkpt>
      <trkpt lat="47.04399" lon="-0.83966">
        <ele>182.7</ele>
        <time>2014-07-09T13:31:22Z</time>
      </trkpt>
      <trkpt lat="47.04399" lon="-0.83966">
        <ele>182.7</ele>
        <time>2014-07-09T13:31:28Z</time>
      </trkpt>
      <trkpt lat="47.04399" lon="-0.83966">
        <ele>182.7</ele>
        <time>2014-07-09T13:31:29Z</time>
      </trkpt>
      <trkpt lat="47.04474" lon="-0.83938">
        <ele>187.6</ele>
        <time>2014-07-09T13:32:38Z</time>
      </trkpt>
      <trkpt lat="47.04476" lon="-0.83936">
        <ele>187.5</ele>
        <time>2014-07-09T13:32:40Z</time>
      </trkpt>
      <trkpt lat="47.04477" lon="-0.83936">
        <ele>187.3</ele>
        <time>2014-07-09T13:32:47Z</time>
      </trkpt>
      <trkpt lat="47.0451" lon="-0.83907">
        <ele>187.9</ele>
        <time>2014-07-09T13:34:12Z</time>
      </trkpt>
      <trkpt lat="47.0451" lon="-0.83907">
        <ele>187.9</ele>
        <time>2014-07-09T13:34:20Z</time>
      </trkpt>
      <trkpt lat="47.0451" lon="-0.83907">
        <ele>187.9</ele>
        <time>2014-07-09T13:34:21Z</time>
      </trkpt>
      <trkpt lat="47.04577" lon="-0.83861">
        <ele>190</ele>
        <time>2014-07-09T13:38:15Z</time>
      </trkpt>
      <trkpt lat="47.04577" lon="-0.83861">
        <ele>190</ele>
        <time>2014-07-09T13:38:20Z</time>
      </trkpt>
      <trkpt lat="47.04577" lon="-0.83861">
        <ele>190</ele>
        <time>2014-07-09T13:38:21Z</time>
      </trkpt>
      <trkpt lat="47.04649" lon="-0.83812">
        <ele>191.4</ele>
        <time>2014-07-09T13:39:36Z</time>
      </trkpt>
      <trkpt lat="47.04651" lon="-0.83811">
        <ele>191.5</ele>
        <time>2014-07-09T13:39:38Z</time>
      </trkpt>
      <trkpt lat="47.04649" lon="-0.83812">
        <ele>191.4</ele>
        <time>2014-07-09T13:39:45Z</time>
      </trkpt>
      <trkpt lat="47.04719" lon="-0.83768">
        <ele>190.8</ele>
        <time>2014-07-09T13:44:02Z</time>
      </trkpt>
      <trkpt lat="47.04719" lon="-0.83768">
        <ele>190.8</ele>
        <time>2014-07-09T13:44:07Z</time>
      </trkpt>
      <trkpt lat="47.04719" lon="-0.83768">
        <ele>190.8</ele>
        <time>2014-07-09T13:44:08Z</time>
      </trkpt>
      <trkpt lat="47.04774" lon="-0.83739">
        <ele>192.5</ele>
        <time>2014-07-09T13:46:12Z</time>
      </trkpt>
      <trkpt lat="47.04777" lon="-0.83733">
        <ele>192.2</ele>
        <time>2014-07-09T13:46:18Z</time>
      </trkpt>
      <trkpt lat="47.0478" lon="-0.83732">
        <ele>193.3</ele>
        <time>2014-07-09T13:46:26Z</time>
      </trkpt>
      <trkpt lat="47.04853" lon="-0.83693">
        <ele>193.7</ele>
        <time>2014-07-09T13:47:54Z</time>
      </trkpt>
      <trkpt lat="47.04853" lon="-0.83693">
        <ele>193.7</ele>
        <time>2014-07-09T13:47:59Z</time>
      </trkpt>
      <trkpt lat="47.04853" lon="-0.83693">
        <ele>193.7</ele>
        <time>2014-07-09T13:48:00Z</time>
      </trkpt>
      <trkpt lat="47.04872" lon="-0.83624">
        <ele>196.2</ele>
        <time>2014-07-09T13:50:05Z</time>
      </trkpt>
      <trkpt lat="47.04869" lon="-0.83617">
        <ele>196.4</ele>
        <time>2014-07-09T13:50:09Z</time>
      </trkpt>
      <trkpt lat="47.04865" lon="-0.83603">
        <ele>196.1</ele>
        <time>2014-07-09T13:50:23Z</time>
      </trkpt>
      <trkpt lat="47.04862" lon="-0.83593">
        <ele>196.5</ele>
        <time>2014-07-09T13:50:31Z</time>
      </trkpt>
      <trkpt lat="47.04861" lon="-0.83591">
        <ele>196.7</ele>
        <time>2014-07-09T13:50:39Z</time>
      </trkpt>
      <trkpt lat="47.04902" lon="-0.83534">
        <ele>193.1</ele>
        <time>2014-07-09T13:51:43Z</time>
      </trkpt>
      <trkpt lat="47.04907" lon="-0.83532">
        <ele>193.3</ele>
        <time>2014-07-09T13:51:46Z</time>
      </trkpt>
      <trkpt lat="47.04911" lon="-0.83526">
        <ele>193.5</ele>
        <time>2014-07-09T13:51:52Z</time>
      </trkpt>
      <trkpt lat="47.0493" lon="-0.83519">
        <ele>192.9</ele>
        <time>2014-07-09T13:52:15Z</time>
      </trkpt>
      <trkpt lat="47.0493" lon="-0.83519">
        <ele>192.9</ele>
        <time>2014-07-09T13:52:22Z</time>
      </trkpt>
      <trkpt lat="47.0493" lon="-0.83519">
        <ele>192.9</ele>
        <time>2014-07-09T13:52:23Z</time>
      </trkpt>
      <trkpt lat="47.04957" lon="-0.83489">
        <ele>193</ele>
        <time>2014-07-09T13:54:01Z</time>
      </trkpt>
      <trkpt lat="47.04957" lon="-0.83489">
        <ele>193</ele>
        <time>2014-07-09T13:54:07Z</time>
      </trkpt>
      <trkpt lat="47.04957" lon="-0.83489">
        <ele>193</ele>
        <time>2014-07-09T13:54:08Z</time>
      </trkpt>
      <trkpt lat="47.05013" lon="-0.83452">
        <ele>196.8</ele>
        <time>2014-07-09T13:55:58Z</time>
      </trkpt>
      <trkpt lat="47.05013" lon="-0.83452">
        <ele>196.8</ele>
        <time>2014-07-09T13:56:04Z</time>
      </trkpt>
      <trkpt lat="47.05013" lon="-0.83452">
        <ele>196.8</ele>
        <time>2014-07-09T13:56:05Z</time>
      </trkpt>
      <trkpt lat="47.05075" lon="-0.83415">
        <ele>197.3</ele>
        <time>2014-07-09T13:58:12Z</time>
      </trkpt>
      <trkpt lat="47.05075" lon="-0.83415">
        <ele>197.3</ele>
        <time>2014-07-09T13:58:17Z</time>
      </trkpt>
      <trkpt lat="47.05075" lon="-0.83415">
        <ele>197.3</ele>
        <time>2014-07-09T13:58:18Z</time>
      </trkpt>
      <trkpt lat="47.05111" lon="-0.83378">
        <ele>197.3</ele>
        <time>2014-07-09T13:58:52Z</time>
      </trkpt>
      <trkpt lat="47.05111" lon="-0.83378">
        <ele>197.3</ele>
        <time>2014-07-09T13:58:59Z</time>
      </trkpt>
      <trkpt lat="47.05111" lon="-0.83378">
        <ele>197.3</ele>
        <time>2014-07-09T13:59:00Z</time>
      </trkpt>
      <trkpt lat="47.05142" lon="-0.83336">
        <ele>202.1</ele>
        <time>2014-07-09T13:59:32Z</time>
      </trkpt>
      <trkpt lat="47.05142" lon="-0.83336">
        <ele>202.1</ele>
        <time>2014-07-09T13:59:39Z</time>
      </trkpt>
      <trkpt lat="47.05142" lon="-0.83336">
        <ele>202.1</ele>
        <time>2014-07-09T13:59:40Z</time>
      </trkpt>
      <trkpt lat="47.05246" lon="-0.83222">
        <ele>200.4</ele>
        <time>2014-07-09T14:01:31Z</time>
      </trkpt>
      <trkpt lat="47.05251" lon="-0.83219">
        <ele>200.6</ele>
        <time>2014-07-09T14:01:35Z</time>
      </trkpt>
      <trkpt lat="47.05251" lon="-0.83219">
        <ele>200.6</ele>
        <time>2014-07-09T14:01:41Z</time>
      </trkpt>
      <trkpt lat="47.05279" lon="-0.83174">
        <ele>201.1</ele>
        <time>2014-07-09T14:02:11Z</time>
      </trkpt>
      <trkpt lat="47.05283" lon="-0.83168">
        <ele>201.3</ele>
        <time>2014-07-09T14:02:14Z</time>
      </trkpt>
      <trkpt lat="47.05284" lon="-0.83165">
        <ele>201.2</ele>
        <time>2014-07-09T14:02:23Z</time>
      </trkpt>
      <trkpt lat="47.05324" lon="-0.8307">
        <ele>203.9</ele>
        <time>2014-07-09T14:03:42Z</time>
      </trkpt>
      <trkpt lat="47.05324" lon="-0.8307">
        <ele>203.9</ele>
        <time>2014-07-09T14:03:48Z</time>
      </trkpt>
      <trkpt lat="47.05324" lon="-0.8307">
        <ele>203.9</ele>
        <time>2014-07-09T14:03:49Z</time>
      </trkpt>
      <trkpt lat="47.05314" lon="-0.83019">
        <ele>203.8</ele>
        <time>2014-07-09T14:04:19Z</time>
      </trkpt>
      <trkpt lat="47.05314" lon="-0.83019">
        <ele>203.8</ele>
        <time>2014-07-09T14:04:26Z</time>
      </trkpt>
      <trkpt lat="47.05314" lon="-0.83019">
        <ele>203.8</ele>
        <time>2014-07-09T14:04:27Z</time>
      </trkpt>
      <trkpt lat="47.05328" lon="-0.82962">
        <ele>205.6</ele>
        <time>2014-07-09T14:04:59Z</time>
      </trkpt>
      <trkpt lat="47.05328" lon="-0.82962">
        <ele>205.6</ele>
        <time>2014-07-09T14:05:07Z</time>
      </trkpt>
      <trkpt lat="47.05328" lon="-0.82962">
        <ele>205.6</ele>
        <time>2014-07-09T14:05:08Z</time>
      </trkpt>
      <trkpt lat="47.05363" lon="-0.82937">
        <ele>206.8</ele>
        <time>2014-07-09T14:05:33Z</time>
      </trkpt>
      <trkpt lat="47.05363" lon="-0.82937">
        <ele>206.8</ele>
        <time>2014-07-09T14:05:40Z</time>
      </trkpt>
      <trkpt lat="47.05363" lon="-0.82937">
        <ele>206.8</ele>
        <time>2014-07-09T14:05:41Z</time>
      </trkpt>
      <trkpt lat="47.05402" lon="-0.82916">
        <ele>203.8</ele>
        <time>2014-07-09T14:06:09Z</time>
      </trkpt>
      <trkpt lat="47.05405" lon="-0.82912">
        <ele>204.2</ele>
        <time>2014-07-09T14:06:13Z</time>
      </trkpt>
      <trkpt lat="47.05405" lon="-0.82912">
        <ele>204.2</ele>
        <time>2014-07-09T14:06:21Z</time>
      </trkpt>
      <trkpt lat="47.05434" lon="-0.82904">
        <ele>204.9</ele>
        <time>2014-07-09T14:06:34Z</time>
      </trkpt>
      <trkpt lat="47.05445" lon="-0.829">
        <ele>204</ele>
        <time>2014-07-09T14:06:42Z</time>
      </trkpt>
      <trkpt lat="47.05445" lon="-0.829">
        <ele>204</ele>
        <time>2014-07-09T14:06:50Z</time>
      </trkpt>
      <trkpt lat="47.05445" lon="-0.829">
        <ele>204</ele>
        <time>2014-07-09T14:06:51Z</time>
      </trkpt>
      <trkpt lat="47.05502" lon="-0.82853">
        <ele>203.9</ele>
        <time>2014-07-09T14:07:48Z</time>
      </trkpt>
      <trkpt lat="47.05505" lon="-0.82851">
        <ele>204.4</ele>
        <time>2014-07-09T14:07:50Z</time>
      </trkpt>
      <trkpt lat="47.05506" lon="-0.82851">
        <ele>204.8</ele>
        <time>2014-07-09T14:07:56Z</time>
      </trkpt>
      <trkpt lat="47.05544" lon="-0.82832">
        <ele>205.5</ele>
        <time>2014-07-09T14:08:24Z</time>
      </trkpt>
      <trkpt lat="47.05564" lon="-0.8282">
        <ele>205.6</ele>
        <time>2014-07-09T14:08:39Z</time>
      </trkpt>
      <trkpt lat="47.05568" lon="-0.82817">
        <ele>205.7</ele>
        <time>2014-07-09T14:08:43Z</time>
      </trkpt>
      <trkpt lat="47.05568" lon="-0.82817">
        <ele>205.7</ele>
        <time>2014-07-09T14:08:52Z</time>
      </trkpt>
      <trkpt lat="47.05622" lon="-0.8279">
        <ele>207.3</ele>
        <time>2014-07-09T14:10:12Z</time>
      </trkpt>
      <trkpt lat="47.05624" lon="-0.82789">
        <ele>207.4</ele>
        <time>2014-07-09T14:10:13Z</time>
      </trkpt>
      <trkpt lat="47.05628" lon="-0.82786">
        <ele>207.4</ele>
        <time>2014-07-09T14:10:22Z</time>
      </trkpt>
      <trkpt lat="47.05689" lon="-0.82751">
        <ele>211.7</ele>
        <time>2014-07-09T14:11:23Z</time>
      </trkpt>
      <trkpt lat="47.05689" lon="-0.82751">
        <ele>211.7</ele>
        <time>2014-07-09T14:11:29Z</time>
      </trkpt>
      <trkpt lat="47.05689" lon="-0.82751">
        <ele>211.7</ele>
        <time>2014-07-09T14:11:30Z</time>
      </trkpt>
      <trkpt lat="47.05739" lon="-0.82724">
        <ele>215.9</ele>
        <time>2014-07-09T14:12:10Z</time>
      </trkpt>
      <trkpt lat="47.05742" lon="-0.82723">
        <ele>216.2</ele>
        <time>2014-07-09T14:12:12Z</time>
      </trkpt>
      <trkpt lat="47.05743" lon="-0.82723">
        <ele>216.1</ele>
        <time>2014-07-09T14:12:20Z</time>
      </trkpt>
      <trkpt lat="47.05776" lon="-0.82679">
        <ele>220</ele>
        <time>2014-07-09T14:12:56Z</time>
      </trkpt>
      <trkpt lat="47.05777" lon="-0.8267">
        <ele>220.3</ele>
        <time>2014-07-09T14:13:01Z</time>
      </trkpt>
      <trkpt lat="47.05777" lon="-0.8267">
        <ele>220.3</ele>
        <time>2014-07-09T14:13:09Z</time>
      </trkpt>
      <trkpt lat="47.05801" lon="-0.82549">
        <ele>221</ele>
        <time>2014-07-09T14:14:20Z</time>
      </trkpt>
      <trkpt lat="47.05801" lon="-0.82549">
        <ele>221</ele>
        <time>2014-07-09T14:14:25Z</time>
      </trkpt>
      <trkpt lat="47.05801" lon="-0.82549">
        <ele>221</ele>
        <time>2014-07-09T14:14:26Z</time>
      </trkpt>
      <trkpt lat="47.05828" lon="-0.82483">
        <ele>221.8</ele>
        <time>2014-07-09T14:15:12Z</time>
      </trkpt>
      <trkpt lat="47.05828" lon="-0.82483">
        <ele>221.8</ele>
        <time>2014-07-09T14:15:19Z</time>
      </trkpt>
      <trkpt lat="47.05828" lon="-0.82483">
        <ele>221.8</ele>
        <time>2014-07-09T14:15:20Z</time>
      </trkpt>
      <trkpt lat="47.05842" lon="-0.82412">
        <ele>222.2</ele>
        <time>2014-07-09T14:15:59Z</time>
      </trkpt>
      <trkpt lat="47.05843" lon="-0.82409">
        <ele>222.4</ele>
        <time>2014-07-09T14:16:01Z</time>
      </trkpt>
      <trkpt lat="47.05843" lon="-0.82408">
        <ele>222.5</ele>
        <time>2014-07-09T14:16:09Z</time>
      </trkpt>
      <trkpt lat="47.05866" lon="-0.8232">
        <ele>220.8</ele>
        <time>2014-07-09T14:16:58Z</time>
      </trkpt>
      <trkpt lat="47.05866" lon="-0.8232">
        <ele>220.8</ele>
        <time>2014-07-09T14:17:04Z</time>
      </trkpt>
      <trkpt lat="47.05866" lon="-0.8232">
        <ele>220.8</ele>
        <time>2014-07-09T14:17:05Z</time>
      </trkpt>
      <trkpt lat="47.05884" lon="-0.82258">
        <ele>216.3</ele>
        <time>2014-07-09T14:17:39Z</time>
      </trkpt>
      <trkpt lat="47.05884" lon="-0.82258">
        <ele>216.3</ele>
        <time>2014-07-09T14:17:44Z</time>
      </trkpt>
      <trkpt lat="47.05884" lon="-0.82258">
        <ele>216.3</ele>
        <time>2014-07-09T14:17:45Z</time>
      </trkpt>
      <trkpt lat="47.05911" lon="-0.82155">
        <ele>214.7</ele>
        <time>2014-07-09T14:18:36Z</time>
      </trkpt>
      <trkpt lat="47.05915" lon="-0.8214">
        <ele>214.9</ele>
        <time>2014-07-09T14:18:44Z</time>
      </trkpt>
      <trkpt lat="47.05918" lon="-0.82133">
        <ele>215.3</ele>
        <time>2014-07-09T14:18:48Z</time>
      </trkpt>
      <trkpt lat="47.05918" lon="-0.82133">
        <ele>215.3</ele>
        <time>2014-07-09T14:18:57Z</time>
      </trkpt>
      <trkpt lat="47.05939" lon="-0.82017">
        <ele>218.3</ele>
        <time>2014-07-09T14:19:45Z</time>
      </trkpt>
      <trkpt lat="47.05946" lon="-0.81995">
        <ele>216.9</ele>
        <time>2014-07-09T14:19:55Z</time>
      </trkpt>
      <trkpt lat="47.05952" lon="-0.81971">
        <ele>215.5</ele>
        <time>2014-07-09T14:20:07Z</time>
      </trkpt>
      <trkpt lat="47.05961" lon="-0.81954">
        <ele>215.4</ele>
        <time>2014-07-09T14:20:17Z</time>
      </trkpt>
      <trkpt lat="47.05962" lon="-0.81954">
        <ele>215.5</ele>
        <time>2014-07-09T14:20:25Z</time>
      </trkpt>
      <trkpt lat="47.05991" lon="-0.81924">
        <ele>215.5</ele>
        <time>2014-07-09T14:20:44Z</time>
      </trkpt>
      <trkpt lat="47.06" lon="-0.81912">
        <ele>215.6</ele>
        <time>2014-07-09T14:20:52Z</time>
      </trkpt>
      <trkpt lat="47.06001" lon="-0.81908">
        <ele>215.9</ele>
        <time>2014-07-09T14:21:00Z</time>
      </trkpt>
      <trkpt lat="47.06043" lon="-0.81851">
        <ele>215.8</ele>
        <time>2014-07-09T14:21:33Z</time>
      </trkpt>
      <trkpt lat="47.06043" lon="-0.81851">
        <ele>215.8</ele>
        <time>2014-07-09T14:21:40Z</time>
      </trkpt>
      <trkpt lat="47.06043" lon="-0.81851">
        <ele>215.8</ele>
        <time>2014-07-09T14:21:41Z</time>
      </trkpt>
      <trkpt lat="47.06067" lon="-0.81812">
        <ele>214.1</ele>
        <time>2014-07-09T14:22:00Z</time>
      </trkpt>
      <trkpt lat="47.06069" lon="-0.81806">
        <ele>213.7</ele>
        <time>2014-07-09T14:22:03Z</time>
      </trkpt>
      <trkpt lat="47.0607" lon="-0.81804">
        <ele>213.5</ele>
        <time>2014-07-09T14:22:11Z</time>
      </trkpt>
      <trkpt lat="47.06094" lon="-0.8176">
        <ele>210.6</ele>
        <time>2014-07-09T14:22:40Z</time>
      </trkpt>
      <trkpt lat="47.06094" lon="-0.8176">
        <ele>210.6</ele>
        <time>2014-07-09T14:22:48Z</time>
      </trkpt>
      <trkpt lat="47.06094" lon="-0.8176">
        <ele>210.6</ele>
        <time>2014-07-09T14:22:49Z</time>
      </trkpt>
      <trkpt lat="47.0613" lon="-0.81689">
        <ele>207.1</ele>
        <time>2014-07-09T14:23:31Z</time>
      </trkpt>
      <trkpt lat="47.0613" lon="-0.81689">
        <ele>207.1</ele>
        <time>2014-07-09T14:23:39Z</time>
      </trkpt>
      <trkpt lat="47.0613" lon="-0.81689">
        <ele>207.1</ele>
        <time>2014-07-09T14:23:40Z</time>
      </trkpt>
      <trkpt lat="47.0617" lon="-0.81595">
        <ele>206.7</ele>
        <time>2014-07-09T14:24:35Z</time>
      </trkpt>
      <trkpt lat="47.06172" lon="-0.81585">
        <ele>207.1</ele>
        <time>2014-07-09T14:24:40Z</time>
      </trkpt>
      <trkpt lat="47.06173" lon="-0.81579">
        <ele>205.3</ele>
        <time>2014-07-09T14:24:47Z</time>
      </trkpt>
      <trkpt lat="47.062" lon="-0.8153">
        <ele>201.8</ele>
        <time>2014-07-09T14:25:18Z</time>
      </trkpt>
      <trkpt lat="47.06201" lon="-0.81523">
        <ele>201.9</ele>
        <time>2014-07-09T14:25:21Z</time>
      </trkpt>
      <trkpt lat="47.0621" lon="-0.81505">
        <ele>202.1</ele>
        <time>2014-07-09T14:25:35Z</time>
      </trkpt>
      <trkpt lat="47.0621" lon="-0.81505">
        <ele>202.1</ele>
        <time>2014-07-09T14:25:41Z</time>
      </trkpt>
      <trkpt lat="47.0621" lon="-0.81505">
        <ele>202.1</ele>
        <time>2014-07-09T14:25:42Z</time>
      </trkpt>
      <trkpt lat="47.06238" lon="-0.81459">
        <ele>201.6</ele>
        <time>2014-07-09T14:26:08Z</time>
      </trkpt>
      <trkpt lat="47.06242" lon="-0.81456">
        <ele>201.7</ele>
        <time>2014-07-09T14:26:12Z</time>
      </trkpt>
      <trkpt lat="47.06248" lon="-0.81435">
        <ele>201.4</ele>
        <time>2014-07-09T14:26:23Z</time>
      </trkpt>
      <trkpt lat="47.06265" lon="-0.81398">
        <ele>201.5</ele>
        <time>2014-07-09T14:26:48Z</time>
      </trkpt>
      <trkpt lat="47.06265" lon="-0.81398">
        <ele>201.5</ele>
        <time>2014-07-09T14:26:54Z</time>
      </trkpt>
      <trkpt lat="47.06265" lon="-0.81398">
        <ele>201.5</ele>
        <time>2014-07-09T14:26:55Z</time>
      </trkpt>
      <trkpt lat="47.06279" lon="-0.81356">
        <ele>201.9</ele>
        <time>2014-07-09T14:27:12Z</time>
      </trkpt>
      <trkpt lat="47.06282" lon="-0.81346">
        <ele>201.9</ele>
        <time>2014-07-09T14:27:18Z</time>
      </trkpt>
      <trkpt lat="47.06283" lon="-0.81344">
        <ele>201.7</ele>
        <time>2014-07-09T14:27:26Z</time>
      </trkpt>
      <trkpt lat="47.06319" lon="-0.81258">
        <ele>197.7</ele>
        <time>2014-07-09T14:28:19Z</time>
      </trkpt>
      <trkpt lat="47.06321" lon="-0.81245">
        <ele>197.4</ele>
        <time>2014-07-09T14:28:25Z</time>
      </trkpt>
      <trkpt lat="47.06323" lon="-0.8124">
        <ele>197.9</ele>
        <time>2014-07-09T14:28:31Z</time>
      </trkpt>
      <trkpt lat="47.06364" lon="-0.8121">
        <ele>200.3</ele>
        <time>2014-07-09T14:29:10Z</time>
      </trkpt>
      <trkpt lat="47.06368" lon="-0.81212">
        <ele>200.2</ele>
        <time>2014-07-09T14:29:13Z</time>
      </trkpt>
      <trkpt lat="47.06371" lon="-0.81213">
        <ele>200</ele>
        <time>2014-07-09T14:29:19Z</time>
      </trkpt>
      <trkpt lat="47.06452" lon="-0.81214">
        <ele>200.7</ele>
        <time>2014-07-09T14:30:34Z</time>
      </trkpt>
      <trkpt lat="47.06452" lon="-0.81214">
        <ele>200.7</ele>
        <time>2014-07-09T14:30:39Z</time>
      </trkpt>
      <trkpt lat="47.06452" lon="-0.81214">
        <ele>200.7</ele>
        <time>2014-07-09T14:30:40Z</time>
      </trkpt>
      <trkpt lat="47.06478" lon="-0.81214">
        <ele>201.2</ele>
        <time>2014-07-09T14:30:50Z</time>
      </trkpt>
      <trkpt lat="47.06493" lon="-0.81212">
        <ele>199.7</ele>
        <time>2014-07-09T14:31:04Z</time>
      </trkpt>
      <trkpt lat="47.06493" lon="-0.81212">
        <ele>199.7</ele>
        <time>2014-07-09T14:31:12Z</time>
      </trkpt>
      <trkpt lat="47.06493" lon="-0.81212">
        <ele>199.7</ele>
        <time>2014-07-09T14:31:13Z</time>
      </trkpt>
      <trkpt lat="47.06534" lon="-0.81205">
        <ele>197.1</ele>
        <time>2014-07-09T14:31:44Z</time>
      </trkpt>
      <trkpt lat="47.06534" lon="-0.81205">
        <ele>197.1</ele>
        <time>2014-07-09T14:31:50Z</time>
      </trkpt>
      <trkpt lat="47.06534" lon="-0.81205">
        <ele>197.1</ele>
        <time>2014-07-09T14:31:51Z</time>
      </trkpt>
      <trkpt lat="47.06637" lon="-0.81214">
        <ele>200.3</ele>
        <time>2014-07-09T14:33:06Z</time>
      </trkpt>
      <trkpt lat="47.06643" lon="-0.81213">
        <ele>199.9</ele>
        <time>2014-07-09T14:33:10Z</time>
      </trkpt>
      <trkpt lat="47.06643" lon="-0.81213">
        <ele>199.9</ele>
        <time>2014-07-09T14:33:19Z</time>
      </trkpt>
      <trkpt lat="47.06681" lon="-0.81205">
        <ele>197.8</ele>
        <time>2014-07-09T14:33:47Z</time>
      </trkpt>
      <trkpt lat="47.06691" lon="-0.81211">
        <ele>196.6</ele>
        <time>2014-07-09T14:33:53Z</time>
      </trkpt>
      <trkpt lat="47.06695" lon="-0.81215">
        <ele>196.8</ele>
        <time>2014-07-09T14:34:01Z</time>
      </trkpt>
      <trkpt lat="47.06735" lon="-0.81207">
        <ele>206.7</ele>
        <time>2014-07-09T14:34:29Z</time>
      </trkpt>
      <trkpt lat="47.06739" lon="-0.8121">
        <ele>206.8</ele>
        <time>2014-07-09T14:34:32Z</time>
      </trkpt>
      <trkpt lat="47.06739" lon="-0.8121">
        <ele>206.8</ele>
        <time>2014-07-09T14:34:38Z</time>
      </trkpt>
      <trkpt lat="47.06716" lon="-0.81315">
        <ele>200.2</ele>
        <time>2014-07-09T14:35:40Z</time>
      </trkpt>
      <trkpt lat="47.06716" lon="-0.81315">
        <ele>200.2</ele>
        <time>2014-07-09T14:35:46Z</time>
      </trkpt>
      <trkpt lat="47.06716" lon="-0.81315">
        <ele>200.2</ele>
        <time>2014-07-09T14:35:47Z</time>
      </trkpt>
      <trkpt lat="47.06706" lon="-0.81383">
        <ele>189.6</ele>
        <time>2014-07-09T14:37:16Z</time>
      </trkpt>
      <trkpt lat="47.06706" lon="-0.81383">
        <ele>130.6</ele>
        <time>2014-07-09T14:37:27Z</time>
      </trkpt>
      <trkpt lat="47.06706" lon="-0.81383">
        <ele>130.6</ele>
        <time>2014-07-09T14:37:30Z</time>
      </trkpt>
    </trkseg>
  </trk>
</gpx>